createdAt,value
2019-01-22T00:00:45.478Z,44.07
2019-01-22T00:07:28.632Z,47.00
2019-01-22T00:14:11.800Z,44.57
2019-01-22T00:20:35.805Z,38.17
2019-01-22T00:33:28.773Z,40.70
2019-01-22T00:39:46.064Z,37.90
2019-01-22T00:46:29.058Z,42.53
2019-01-22T00:59:23.926Z,41.80
2019-01-22T01:05:49.567Z,51.07
2019-01-22T01:11:54.227Z,43.80
2019-01-22T01:17:58.899Z,48.17
2019-01-22T01:24:03.548Z,48.10
2019-01-22T01:30:15.260Z,40.77
2019-01-22T01:36:19.904Z,39.67
2019-01-22T01:42:24.624Z,35.40
2019-01-22T01:48:29.364Z,40.93
2019-01-22T01:54:34.108Z,36.13
2019-01-22T02:00:40.610Z,35.97
2019-01-22T02:06:48.644Z,36.30
2019-01-22T02:13:00.557Z,40.67
2019-01-22T02:19:15.694Z,44.00
2019-01-22T02:25:47.587Z,37.87
2019-01-22T02:32:08.286Z,45.57
2019-01-22T02:38:41.848Z,38.13
2019-01-22T02:45:11.065Z,46.90
2019-01-22T02:51:41.189Z,34.27
2019-01-22T02:58:21.577Z,41.03
2019-01-22T03:04:42.879Z,38.57
2019-01-22T03:10:55.001Z,36.80
2019-01-22T03:17:21.936Z,38.00
2019-01-22T03:23:46.529Z,38.30
2019-01-22T03:29:59.448Z,46.03
2019-01-22T03:36:40.431Z,42.30
2019-01-22T03:43:05.211Z,38.33
2019-01-22T03:49:26.055Z,39.97
2019-01-22T03:55:44.102Z,45.13
2019-01-22T04:01:48.833Z,45.27
2019-01-22T04:07:53.564Z,45.23
2019-01-22T04:13:58.317Z,41.37
2019-01-22T04:20:05.176Z,33.97
2019-01-22T04:26:22.875Z,40.70
2019-01-22T04:32:35.089Z,43.03
2019-01-22T04:39:14.264Z,36.37
2019-01-22T04:45:43.293Z,38.27
2019-01-22T04:52:22.354Z,38.97
2019-01-22T04:58:46.206Z,39.90
2019-01-22T05:04:57.988Z,40.80
2019-01-22T05:11:18.810Z,39.50
2019-01-22T05:17:39.725Z,46.23
2019-01-22T05:24:08.299Z,44.13
2019-01-22T05:30:32.035Z,39.93
2019-01-22T05:37:01.935Z,42.87
2019-01-22T05:43:41.220Z,44.87
2019-01-22T05:50:13.928Z,47.43
2019-01-22T05:56:32.103Z,41.30
2019-01-22T06:02:41.650Z,42.40
2019-01-22T06:08:53.603Z,43.27
2019-01-22T06:15:08.448Z,49.23
2019-01-22T06:21:46.088Z,41.30
2019-01-22T06:27:55.462Z,38.20
2019-01-22T06:34:22.440Z,37.60
2019-01-22T06:40:49.437Z,47.00
2019-01-22T06:47:10.778Z,37.77
2019-01-22T06:53:34.870Z,37.77
2019-01-22T07:00:12.395Z,38.63
2019-01-22T07:06:27.163Z,38.07
2019-01-22T07:12:54.207Z,34.53
2019-01-22T07:19:06.453Z,38.17
2019-01-22T07:25:30.311Z,39.60
2019-01-22T07:31:39.955Z,32.50
2019-01-22T07:37:50.650Z,36.63
2019-01-22T07:44:03.880Z,33.30
2019-01-22T07:50:21.278Z,32.70
2019-01-22T07:56:45.266Z,34.63
2019-01-22T08:03:00.290Z,28.40
2019-01-22T08:09:46.884Z,32.27
2019-01-22T08:16:17.399Z,32.10
2019-01-22T08:22:59.687Z,32.10
2019-01-22T08:29:18.397Z,30.10
2019-01-22T08:35:57.307Z,27.27
2019-01-22T08:42:09.342Z,32.80
2019-01-22T08:48:52.887Z,30.20
2019-01-22T08:55:23.087Z,32.13
2019-01-22T09:01:44.132Z,30.13
2019-01-22T09:07:58.676Z,33.70
2019-01-22T09:14:11.187Z,32.23
2019-01-22T09:20:41.162Z,38.30
2019-01-22T09:26:56.159Z,39.60
2019-01-22T09:33:26.160Z,39.73
2019-01-22T09:39:30.972Z,33.00
2019-01-22T09:45:35.698Z,32.57
2019-01-22T09:51:40.577Z,40.80
2019-01-22T09:57:45.214Z,39.90
2019-01-22T10:03:49.947Z,31.67
2019-01-22T10:09:54.671Z,41.40
2019-01-22T10:15:59.434Z,88.67
2019-01-22T10:22:04.500Z,69.23
2019-01-22T10:28:09.373Z,113.97
2019-01-22T10:34:14.396Z,41.17
2019-01-22T10:40:25.312Z,46.60
2019-01-22T10:46:30.062Z,56.43
2019-01-22T10:52:34.718Z,51.60
2019-01-22T10:58:39.403Z,42.87
2019-01-22T11:04:44.096Z,71.43
2019-01-22T11:10:48.914Z,86.20
2019-01-22T11:16:53.549Z,81.57
2019-01-22T11:22:58.290Z,50.80
2019-01-22T11:29:04.335Z,39.30
2019-01-22T11:35:13.844Z,41.20
2019-01-22T11:41:18.738Z,40.33
2019-01-22T11:47:25.776Z,45.37
2019-01-22T11:53:30.513Z,39.30
2019-01-22T11:59:35.240Z,42.13
2019-01-22T12:05:41.569Z,39.77
2019-01-22T12:11:46.513Z,37.77
2019-01-22T12:17:51.215Z,39.23
2019-01-22T12:23:55.864Z,44.67
2019-01-22T12:30:00.447Z,44.10
2019-01-22T12:36:05.414Z,41.37
2019-01-22T12:42:16.099Z,43.37
2019-01-22T12:48:20.891Z,41.03
2019-01-22T12:54:26.247Z,42.73
2019-01-22T13:00:35.283Z,38.20
2019-01-22T13:06:39.857Z,40.53
2019-01-22T13:12:44.557Z,35.10
2019-01-22T13:18:49.261Z,39.17
2019-01-22T13:24:53.833Z,39.40
2019-01-22T13:30:58.836Z,35.97
2019-01-22T13:37:03.384Z,38.03
2019-01-22T13:43:08.234Z,41.13
2019-01-22T13:49:13.215Z,38.27
2019-01-22T13:55:30.679Z,38.00
2019-01-22T14:01:36.120Z,37.10
2019-01-22T14:07:42.792Z,39.90
2019-01-22T14:13:50.840Z,42.30
2019-01-22T14:19:53.741Z,39.70
2019-01-22T14:25:58.462Z,44.90
2019-01-22T14:32:03.085Z,39.83
2019-01-22T14:38:07.874Z,41.70
2019-01-22T14:44:12.695Z,44.70
2019-01-22T14:50:29.630Z,49.80
2019-01-22T14:56:34.354Z,39.50
2019-01-22T15:02:39.006Z,44.47
2019-01-22T15:08:43.737Z,34.87
2019-01-22T15:14:49.177Z,35.57
2019-01-22T15:20:54.060Z,51.57
2019-01-22T15:26:58.860Z,38.93
2019-01-22T15:33:03.774Z,42.40
2019-01-22T15:39:09.593Z,40.53
2019-01-22T15:45:14.701Z,42.10
2019-01-22T15:51:19.342Z,44.47
2019-01-22T15:57:23.932Z,43.67
2019-01-22T16:03:31.599Z,51.87
2019-01-22T16:09:36.483Z,41.10
2019-01-22T16:15:41.282Z,49.50
2019-01-22T16:21:45.970Z,54.07
2019-01-22T16:27:50.685Z,47.40
2019-01-22T16:33:55.302Z,49.77
2019-01-22T16:39:59.878Z,50.13
2019-01-22T16:46:05.673Z,51.10
2019-01-22T16:52:10.326Z,45.03
2019-01-22T16:58:14.997Z,41.00
2019-01-22T17:04:19.696Z,47.63
2019-01-22T17:10:24.584Z,46.00
2019-01-22T17:16:29.272Z,44.10
2019-01-22T17:22:33.977Z,45.83
2019-01-22T17:28:38.616Z,44.13
2019-01-22T17:34:44.558Z,47.90
2019-01-22T17:40:49.264Z,44.77
2019-01-22T17:46:53.918Z,43.60
2019-01-22T17:52:58.566Z,44.57
2019-01-22T17:59:03.358Z,58.07
2019-01-22T18:05:11.603Z,51.40
2019-01-22T18:11:16.352Z,50.47
2019-01-22T18:17:21.180Z,43.73
2019-01-22T18:23:25.835Z,46.10
2019-01-22T18:29:32.026Z,45.30
2019-01-22T18:35:41.320Z,50.53
2019-01-22T18:41:45.919Z,71.73
2019-01-22T18:47:50.568Z,67.13
2019-01-22T18:53:55.142Z,64.93
2019-01-22T18:59:59.704Z,63.20
2019-01-22T19:06:04.503Z,62.67
2019-01-22T19:12:09.869Z,56.73
2019-01-22T19:18:15.427Z,55.60
2019-01-22T19:24:20.054Z,55.80
2019-01-22T19:30:27.717Z,45.10
2019-01-22T19:36:32.420Z,44.30
2019-01-22T19:42:37.065Z,57.17
2019-01-22T19:48:41.688Z,65.17
2019-01-22T19:54:46.494Z,66.03
2019-01-22T20:00:51.205Z,58.30
2019-01-22T20:06:56.016Z,56.03
2019-01-22T20:13:00.820Z,56.27
2019-01-22T20:19:05.610Z,52.53
2019-01-22T20:25:11.340Z,50.23
2019-01-22T20:31:16.016Z,49.40
2019-01-22T20:37:20.771Z,55.17
2019-01-22T20:43:25.437Z,53.93
2019-01-22T20:49:30.011Z,51.10
2019-01-22T20:55:34.656Z,51.47
2019-01-22T21:01:39.315Z,50.63
2019-01-22T21:07:43.982Z,56.13
2019-01-22T21:13:48.750Z,54.20
2019-01-22T21:19:53.432Z,52.37
2019-01-22T21:25:58.079Z,50.50
2019-01-22T21:32:02.748Z,54.83
2019-01-22T21:38:07.590Z,52.60
2019-01-22T21:44:12.825Z,55.93
2019-01-22T21:50:17.959Z,49.90
2019-01-22T21:56:22.612Z,44.67
2019-01-22T22:02:27.216Z,55.33
2019-01-22T22:08:31.975Z,60.13
2019-01-22T22:14:36.686Z,58.53
2019-01-22T22:20:42.561Z,55.00
2019-01-22T22:26:47.357Z,53.90
2019-01-22T22:32:52.062Z,55.67
2019-01-22T22:38:56.890Z,53.80
2019-01-22T22:45:01.473Z,57.80
2019-01-22T22:51:06.433Z,51.70
2019-01-22T22:57:12.386Z,57.70
2019-01-22T23:03:17.585Z,58.73
2019-01-22T23:09:22.620Z,51.17
2019-01-22T23:15:27.372Z,56.50
2019-01-22T23:21:36.331Z,60.60
2019-01-22T23:27:41.808Z,51.23
2019-01-22T23:33:46.720Z,61.13
2019-01-22T23:39:51.405Z,58.53
2019-01-22T23:45:56.086Z,53.20
2019-01-22T23:52:03.837Z,61.33
2019-01-22T23:58:08.515Z,57.60
